Airfield :
LOGIN :

Register | Disclaimer

   EN    FR    IT 

 










Legend :    VFR   Marginal VFR   IFR   Intensive IFR   Very Intensive IFR
Visi :
Ceiling :
>= 8 km
>= 3000ft
5 to 8 km
1000 to 3000 ft
1500m to 5 km
500 to 1000 ft
800 to 1500m
200 to 500 ft
< 800m
< 200 ft
Symbols :   Thunderstorms  Fog  Heavy snow  Heavy precipitations  Wind > 20 kt
SIGMETs :     Misc.  Thunderstorms  Icing  Turbulence  Mountain Waves  Volcanic Ashes






- Airport Elevation : 18 ft
- IATA code : AJA


LFKJ - Ajaccio

CURRENT METAR :
  • 052030Z AUTO 05005KT 9999 BKN027 BKN039 OVC050 11/08 Q1025 TEMPO FEW020TCU

EXPIRED METARs :
  • 052000Z AUTO 04004KT 9999 BKN024 BKN035 OVC050 12/09 Q1025 TEMPO FEW020TCU
  • 051930Z AUTO 04003KT 9999 BKN023 BKN030 OVC049 12/09 Q1025 TEMPO FEW020TCU
  • 051900Z AUTO 06002KT 9999 BKN018 BKN024 BKN054 12/09 Q1025 TEMPO FEW020TCU
  • 051830Z AUTO 28003KT 200V330 9999 FEW024 BKN048 OVC054 13/09 Q1025 TEMPO FEW020TCU
  • 051800Z AUTO 24005KT 9999 BKN021 BKN027 BKN036 13/09 Q1025 TEMPO FEW020TCU
  • 051730Z AUTO 25006KT 220V300 9999 BKN020 OVC030 13/10 Q1025 TEMPO FEW020TCU

TAF TAF LFKJ
Valid from the 05 at 21:00 until the 06 at 21:00 UTC


052000Z 0521/0621 23008KT 9999 BKN020 BKN050
BECMG 0521/0524 08012KT
BECMG 0602/0604 02010KT
PROB40 0604/0608 SHRA SCT025TCU
BECMG 0608/0610 23010KT NSC
ATIS : +33 4 95 23 59 85



MET'MAP, your aeronautical weather chart ! - Copyright ORBIFLY December 2007 - Disclaimer

ORBIFLY MET'MAP TEAM :

Programming & Development : Alexandra Zaïnal
Original concept : Baudouin d'Aumeries
Technical & hardware support : Manuel Goepfert
Assistance : Marc-Olivier Méhu




SOURCES & CREDITS :

   NOAA